createdAt,value
2018-12-22T00:00:30.931Z,270.40
2018-12-22T00:03:02.769Z,178.50
2018-12-22T00:05:33.908Z,105.60
2018-12-22T00:08:04.923Z,135.50
2018-12-22T00:10:36.062Z,167.73
2018-12-22T00:13:07.078Z,199.77
2018-12-22T00:15:37.680Z,167.53
2018-12-22T00:18:08.995Z,164.77
2018-12-22T00:20:39.834Z,207.70
2018-12-22T00:23:11.131Z,217.97
2018-12-22T00:25:42.434Z,407.23
2018-12-22T00:28:21.975Z,403.23
2018-12-22T00:30:46.655Z,321.57
2018-12-22T00:33:17.342Z,383.87
2018-12-22T00:35:48.998Z,438.90
2018-12-22T00:38:20.093Z,504.23
2018-12-22T00:40:51.062Z,508.60
2018-12-22T00:43:21.872Z,338.60
2018-12-22T00:45:53.287Z,317.23
2018-12-22T00:48:24.348Z,173.33
2018-12-22T00:50:55.984Z,153.37
2018-12-22T00:53:26.829Z,210.13
2018-12-22T00:55:57.782Z,109.00
2018-12-22T00:58:30.881Z,424.33
2018-12-22T01:01:02.076Z,178.97
2018-12-22T01:03:33.063Z,196.37
2018-12-22T01:06:03.907Z,353.60
2018-12-22T01:08:35.383Z,393.90
2018-12-22T01:11:06.296Z,142.33
2018-12-22T01:13:37.459Z,209.30
2018-12-22T01:16:09.000Z,154.43
2018-12-22T01:18:40.236Z,82.57
2018-12-22T01:21:10.516Z,136.33
2018-12-22T01:23:41.612Z,119.50
2018-12-22T01:26:12.479Z,209.00
2018-12-22T01:28:43.828Z,231.00
2018-12-22T01:31:14.978Z,364.13
2018-12-22T01:33:46.125Z,279.90
2018-12-22T01:36:17.294Z,213.30
2018-12-22T01:38:48.602Z,223.43
2018-12-22T01:41:19.783Z,403.70
2018-12-22T01:43:50.699Z,278.20
2018-12-22T01:46:21.615Z,289.10
2018-12-22T01:48:52.229Z,265.07
2018-12-22T01:51:22.984Z,410.63
2018-12-22T01:53:53.883Z,446.87
2018-12-22T01:56:25.206Z,368.30
2018-12-22T01:58:56.593Z,308.53
2018-12-22T02:01:27.048Z,391.53
2018-12-22T02:03:58.188Z,330.07
2018-12-22T02:06:28.663Z,230.67
2018-12-22T02:08:59.651Z,227.10
2018-12-22T02:11:30.725Z,351.80
2018-12-22T02:14:02.593Z,180.20
2018-12-22T02:16:33.707Z,162.10
2018-12-22T02:19:04.642Z,269.03
2018-12-22T02:21:35.751Z,271.70
2018-12-22T02:24:06.857Z,358.07
2018-12-22T02:26:37.902Z,178.30
2018-12-22T02:29:09.511Z,375.33
2018-12-22T02:31:40.966Z,469.80
2018-12-22T02:34:11.781Z,493.77
2018-12-22T02:36:42.901Z,416.57
2018-12-22T02:39:13.744Z,128.03
2018-12-22T02:41:44.574Z,345.13
2018-12-22T02:44:15.711Z,229.73
2018-12-22T02:46:46.663Z,137.90
2018-12-22T02:49:18.100Z,176.37
2018-12-22T02:51:49.473Z,147.83
2018-12-22T02:54:20.418Z,116.83
2018-12-22T02:56:51.471Z,132.97
2018-12-22T02:59:23.066Z,189.90
2018-12-22T03:01:53.993Z,166.17
2018-12-22T03:04:24.332Z,189.77
2018-12-22T03:06:55.327Z,160.03
2018-12-22T03:09:26.544Z,308.03
2018-12-22T03:11:58.180Z,120.60
2018-12-22T03:14:29.383Z,135.13
2018-12-22T03:17:00.653Z,109.53
2018-12-22T03:19:31.714Z,128.93
2018-12-22T03:22:02.786Z,231.30
2018-12-22T03:24:33.146Z,306.00
2018-12-22T03:27:04.269Z,363.53
2018-12-22T03:29:35.376Z,397.10
2018-12-22T03:32:06.966Z,341.03
2018-12-22T03:34:38.427Z,351.00
2018-12-22T03:37:09.154Z,391.20
2018-12-22T03:39:41.276Z,215.57
2018-12-22T03:42:12.063Z,169.27
2018-12-22T03:44:43.273Z,251.57
2018-12-22T03:47:14.418Z,262.97
2018-12-22T03:49:45.493Z,233.33
2018-12-22T03:52:16.463Z,314.37
2018-12-22T03:54:46.653Z,232.83
2018-12-22T03:57:17.743Z,192.17
2018-12-22T03:59:48.617Z,164.23
2018-12-22T04:02:19.719Z,177.90
2018-12-22T04:04:50.774Z,407.20
2018-12-22T04:07:21.615Z,225.70
2018-12-22T04:09:52.886Z,102.00
2018-12-22T04:12:23.977Z,180.17
2018-12-22T04:14:54.937Z,288.97
2018-12-22T04:17:26.295Z,276.20
2018-12-22T04:19:56.715Z,219.63
2018-12-22T04:22:27.361Z,288.17
2018-12-22T04:24:58.173Z,201.67
2018-12-22T04:27:28.404Z,309.43
2018-12-22T04:29:59.276Z,447.47
2018-12-22T04:32:29.558Z,397.23
2018-12-22T04:35:00.708Z,327.53
2018-12-22T04:37:32.103Z,418.57
2018-12-22T04:40:03.302Z,431.00
2018-12-22T04:42:34.124Z,303.77
2018-12-22T04:45:05.417Z,211.70
2018-12-22T04:47:36.338Z,383.67
2018-12-22T04:50:07.483Z,193.30
2018-12-22T04:52:38.633Z,288.77
2018-12-22T04:55:10.510Z,353.07
2018-12-22T04:57:42.057Z,428.73
2018-12-22T05:00:14.174Z,335.43
2018-12-22T05:02:44.652Z,207.07
2018-12-22T05:05:15.654Z,202.07
2018-12-22T05:07:47.007Z,397.50
2018-12-22T05:10:18.321Z,298.30
2018-12-22T05:12:49.145Z,404.87
2018-12-22T05:15:20.554Z,340.57
2018-12-22T05:17:51.483Z,274.30
2018-12-22T05:20:22.659Z,302.87
2018-12-22T05:22:53.572Z,383.77
2018-12-22T05:25:23.885Z,254.33
2018-12-22T05:27:55.921Z,124.27
2018-12-22T05:30:26.801Z,116.73
2018-12-22T05:32:58.399Z,348.37
2018-12-22T05:35:29.537Z,390.13
2018-12-22T05:38:00.710Z,344.03
2018-12-22T05:40:32.340Z,299.70
2018-12-22T05:43:03.501Z,133.20
2018-12-22T05:45:34.605Z,286.40
2018-12-22T05:48:05.912Z,294.57
2018-12-22T05:50:36.948Z,174.73
2018-12-22T05:53:07.398Z,280.93
2018-12-22T05:55:38.413Z,216.17
2018-12-22T05:58:09.596Z,154.83
2018-12-22T06:00:39.530Z,133.83
2018-12-22T06:03:09.667Z,139.07
2018-12-22T06:05:39.610Z,241.77
2018-12-22T06:08:09.599Z,263.70
2018-12-22T06:10:39.629Z,218.93
2018-12-22T06:13:09.657Z,332.47
2018-12-22T06:15:39.782Z,295.23
2018-12-22T06:18:09.896Z,304.07
2018-12-22T06:20:39.676Z,169.90
2018-12-22T06:23:09.607Z,207.33
2018-12-22T06:25:39.696Z,341.07
2018-12-22T06:28:09.890Z,187.53
2018-12-22T06:30:39.679Z,273.93
2018-12-22T06:33:09.725Z,220.47
2018-12-22T06:35:39.773Z,184.90
2018-12-22T06:38:09.738Z,205.97
2018-12-22T06:40:39.573Z,255.90
2018-12-22T06:43:09.437Z,240.63
2018-12-22T06:45:39.484Z,246.37
2018-12-22T06:48:09.491Z,214.70
2018-12-22T06:50:39.497Z,250.57
2018-12-22T06:53:09.561Z,269.23
2018-12-22T06:55:39.703Z,198.60
2018-12-22T06:58:09.707Z,227.60
2018-12-22T07:00:39.538Z,207.17
2018-12-22T07:03:09.602Z,235.73
2018-12-22T07:05:39.571Z,206.43
2018-12-22T07:08:09.638Z,287.33
2018-12-22T07:10:39.666Z,222.17
2018-12-22T07:13:09.698Z,134.87
2018-12-22T07:15:39.775Z,149.90
2018-12-22T07:18:09.721Z,145.40
2018-12-22T07:20:39.509Z,157.47
2018-12-22T07:23:09.333Z,195.33
2018-12-22T07:25:39.266Z,172.87
2018-12-22T07:28:09.402Z,262.87
2018-12-22T07:30:39.367Z,117.87
2018-12-22T07:33:09.447Z,115.43
2018-12-22T07:35:39.588Z,179.03
2018-12-22T07:38:09.692Z,111.00
2018-12-22T07:40:39.579Z,199.20
2018-12-22T07:43:09.752Z,246.73
2018-12-22T07:45:39.779Z,209.40
2018-12-22T07:48:10.208Z,189.03
2018-12-22T07:50:40.286Z,112.53
2018-12-22T07:53:10.379Z,135.50
2018-12-22T07:55:41.046Z,122.57
2018-12-22T07:58:11.214Z,115.27
2018-12-22T08:00:41.043Z,110.13
2018-12-22T08:03:11.271Z,127.87
2018-12-22T08:05:41.324Z,118.53
2018-12-22T08:08:11.399Z,118.00
2018-12-22T08:10:41.548Z,122.43
2018-12-22T08:13:11.604Z,119.77
2018-12-22T08:15:43.059Z,125.10
2018-12-22T08:18:13.400Z,102.07
2018-12-22T08:20:43.648Z,101.57
2018-12-22T08:23:13.494Z,126.03
2018-12-22T08:25:43.650Z,130.27
2018-12-22T08:28:13.575Z,144.77
2018-12-22T08:30:43.998Z,104.23
2018-12-22T08:33:14.282Z,111.93
2018-12-22T08:35:44.300Z,120.10
2018-12-22T08:38:14.282Z,117.10
2018-12-22T08:40:44.062Z,133.67
2018-12-22T08:43:14.125Z,106.40
2018-12-22T08:45:44.211Z,83.10
2018-12-22T08:48:14.324Z,97.70
2018-12-22T08:50:44.289Z,96.80
2018-12-22T08:53:14.317Z,106.57
2018-12-22T08:55:44.488Z,86.37
2018-12-22T08:58:14.483Z,82.03
2018-12-22T09:00:51.967Z,83.83
2018-12-22T09:03:16.488Z,95.00
2018-12-22T09:05:46.596Z,77.87
2018-12-22T09:08:16.677Z,97.07
2018-12-22T09:10:46.968Z,73.93
2018-12-22T09:13:20.865Z,73.80
2018-12-22T09:15:49.267Z,74.23
2018-12-22T09:18:19.373Z,73.83
2018-12-22T09:20:49.208Z,77.77
2018-12-22T09:23:19.111Z,68.90
2018-12-22T09:25:49.088Z,78.17
2018-12-22T09:28:18.971Z,80.17
2018-12-22T09:30:48.777Z,75.13
2018-12-22T09:33:18.911Z,76.03
2018-12-22T09:35:48.988Z,78.67
2018-12-22T09:38:19.108Z,77.60
2018-12-22T09:40:48.996Z,67.17
2018-12-22T09:43:19.014Z,73.70
2018-12-22T09:45:49.110Z,66.20
2018-12-22T09:48:19.277Z,62.77
2018-12-22T09:50:49.404Z,72.50
2018-12-22T09:53:19.363Z,75.57
2018-12-22T09:55:49.537Z,76.63
2018-12-22T09:58:19.574Z,65.27
2018-12-22T10:00:49.594Z,73.53
2018-12-22T10:03:19.494Z,65.87
2018-12-22T10:05:49.521Z,78.40
2018-12-22T10:08:19.695Z,73.53
2018-12-22T10:10:49.927Z,82.90
2018-12-22T10:13:20.010Z,73.30
2018-12-22T10:15:50.303Z,77.23
2018-12-22T10:18:20.233Z,79.63
2018-12-22T10:20:50.165Z,80.77
2018-12-22T10:23:20.066Z,84.07
2018-12-22T10:25:50.141Z,71.53
2018-12-22T10:28:20.184Z,91.03
2018-12-22T10:30:50.403Z,90.20
2018-12-22T10:33:20.541Z,99.33
2018-12-22T10:35:50.776Z,103.57
2018-12-22T10:38:20.867Z,88.67
2018-12-22T10:40:50.666Z,89.67
2018-12-22T10:43:20.544Z,82.73
2018-12-22T10:45:50.631Z,104.97
2018-12-22T10:48:20.741Z,116.33
2018-12-22T10:50:50.916Z,126.87
2018-12-22T10:53:21.063Z,134.90
2018-12-22T10:55:51.210Z,129.37
2018-12-22T10:58:21.316Z,124.93
2018-12-22T11:00:51.275Z,119.23
2018-12-22T11:03:21.385Z,117.67
2018-12-22T11:05:51.571Z,122.87
2018-12-22T11:08:21.719Z,125.63
2018-12-22T11:10:51.884Z,130.83
2018-12-22T11:13:21.941Z,117.97
2018-12-22T11:15:52.538Z,115.27
2018-12-22T11:18:23.055Z,110.37
2018-12-22T11:20:53.090Z,108.03
2018-12-22T11:23:23.231Z,102.63
2018-12-22T11:25:53.377Z,100.80
2018-12-22T11:28:23.377Z,97.53
2018-12-22T11:30:53.274Z,103.40
2018-12-22T11:33:23.322Z,104.07
2018-12-22T11:35:53.533Z,107.67
2018-12-22T11:38:23.606Z,110.10
2018-12-22T11:40:53.425Z,91.53
2018-12-22T11:43:23.331Z,98.87
2018-12-22T11:45:53.454Z,97.90
2018-12-22T11:48:42.385Z,94.77
2018-12-22T11:51:12.621Z,97.20
2018-12-22T11:53:42.851Z,92.50
2018-12-22T11:56:13.028Z,98.70
2018-12-22T11:58:43.176Z,93.33
2018-12-22T12:01:13.125Z,91.10
2018-12-22T12:03:43.007Z,87.27
2018-12-22T12:06:13.183Z,90.97
2018-12-22T12:08:43.470Z,95.53
2018-12-22T12:11:13.732Z,90.73
2018-12-22T12:13:43.785Z,89.80
2018-12-22T12:16:25.739Z,84.47
2018-12-22T12:19:06.981Z,84.50
2018-12-22T12:21:37.003Z,81.17
2018-12-22T12:24:07.135Z,92.27
2018-12-22T12:26:37.220Z,85.10
2018-12-22T12:29:07.268Z,88.53
2018-12-22T12:31:37.204Z,84.53
2018-12-22T12:34:07.336Z,80.13
2018-12-22T12:36:37.337Z,78.60
2018-12-22T12:39:10.304Z,82.03
2018-12-22T12:41:40.313Z,77.50
2018-12-22T12:44:10.190Z,80.43
2018-12-22T12:46:43.566Z,82.53
2018-12-22T12:49:14.080Z,94.97
2018-12-22T12:51:44.300Z,104.27
2018-12-22T12:54:14.378Z,103.77
2018-12-22T12:57:00.121Z,112.47
2018-12-22T12:59:32.154Z,113.70
2018-12-22T13:02:03.339Z,121.43
2018-12-22T13:04:33.310Z,117.30
2018-12-22T13:07:03.424Z,116.73
2018-12-22T13:09:33.522Z,118.13
2018-12-22T13:12:12.734Z,113.17
2018-12-22T13:14:45.056Z,116.10
2018-12-22T13:17:15.564Z,111.03
2018-12-22T13:19:45.685Z,99.60
2018-12-22T13:22:15.517Z,105.50
2018-12-22T13:24:45.617Z,94.00
2018-12-22T13:28:44.828Z,97.73
2018-12-22T13:31:16.328Z,82.53
2018-12-22T13:33:46.420Z,89.27
2018-12-22T13:36:16.512Z,86.40
2018-12-22T13:38:52.742Z,88.30
2018-12-22T13:41:22.548Z,81.53
2018-12-22T13:43:52.411Z,81.90
2018-12-22T13:46:22.252Z,85.67
2018-12-22T13:48:52.421Z,105.27
2018-12-22T13:51:22.691Z,85.23
2018-12-22T13:53:52.751Z,83.90
2018-12-22T13:56:23.002Z,79.93
2018-12-22T13:58:53.077Z,81.43
2018-12-22T14:01:23.917Z,88.63
2018-12-22T14:03:53.942Z,85.33
2018-12-22T14:06:31.517Z,83.67
2018-12-22T14:09:01.538Z,83.20
2018-12-22T14:11:31.546Z,91.10
2018-12-22T14:14:01.467Z,90.87
2018-12-22T14:17:07.917Z,104.33
2018-12-22T14:19:40.536Z,91.60
2018-12-22T14:22:10.685Z,105.07
2018-12-22T14:24:47.538Z,95.10
2018-12-22T14:28:20.557Z,99.20
2018-12-22T14:30:50.718Z,97.70
2018-12-22T14:33:20.603Z,101.00
2018-12-22T14:35:55.228Z,90.53
2018-12-22T14:38:25.469Z,96.53
2018-12-22T14:41:01.829Z,100.33
2018-12-22T14:43:31.855Z,91.93
2018-12-22T14:46:01.959Z,105.23
2018-12-22T14:48:32.545Z,109.50
2018-12-22T14:51:02.571Z,100.03
2018-12-22T14:53:32.533Z,94.67
2018-12-22T14:56:02.545Z,97.90
2018-12-22T14:58:35.143Z,97.10
2018-12-22T15:01:05.185Z,107.13
2018-12-22T15:03:34.982Z,106.37
2018-12-22T15:06:05.181Z,110.20
2018-12-22T15:08:35.540Z,123.63
2018-12-22T15:11:05.967Z,114.03
2018-12-22T15:13:36.282Z,111.90
2018-12-22T15:16:06.298Z,106.40
2018-12-22T15:18:36.791Z,117.00
2018-12-22T15:21:07.126Z,103.37
2018-12-22T15:23:37.472Z,112.53
2018-12-22T15:26:07.769Z,110.03
2018-12-22T15:28:46.906Z,116.43
2018-12-22T15:31:10.544Z,123.20
2018-12-22T15:33:40.714Z,133.67
2018-12-22T15:36:11.075Z,128.37
2018-12-22T15:38:41.577Z,135.40
2018-12-22T15:41:11.702Z,131.40
2018-12-22T15:43:42.349Z,125.20
2018-12-22T15:46:12.472Z,140.03
2018-12-22T15:48:42.491Z,149.40
2018-12-22T15:51:12.654Z,136.67
2018-12-22T15:53:42.952Z,142.63
2018-12-22T15:56:13.041Z,191.57
2018-12-22T15:58:43.964Z,177.30
2018-12-22T16:01:14.148Z,195.57
2018-12-22T16:03:45.415Z,218.50
2018-12-22T16:06:16.170Z,190.27
2018-12-22T16:08:46.927Z,168.93
2018-12-22T16:11:18.766Z,189.63
2018-12-22T16:13:50.218Z,166.73
2018-12-22T16:16:20.720Z,181.53
2018-12-22T16:18:51.000Z,186.07
2018-12-22T16:21:21.386Z,158.60
2018-12-22T16:23:51.595Z,152.53
2018-12-22T16:26:21.796Z,152.93
2018-12-22T16:28:57.271Z,158.70
2018-12-22T16:31:27.358Z,143.40
2018-12-22T16:33:57.462Z,150.70
2018-12-22T16:36:28.765Z,162.97
2018-12-22T16:38:58.921Z,293.47
2018-12-22T16:41:29.226Z,272.60
2018-12-22T16:43:59.682Z,519.80
2018-12-22T16:46:29.651Z,597.27
2018-12-22T16:49:00.802Z,482.27
2018-12-22T16:51:31.004Z,665.00
2018-12-22T16:54:01.095Z,710.40
2018-12-22T16:56:31.151Z,706.43
2018-12-22T16:59:02.280Z,600.43
2018-12-22T17:01:54.547Z,664.00
2018-12-22T17:04:24.585Z,682.20
2018-12-22T17:06:54.582Z,459.23
2018-12-22T17:09:24.952Z,534.97
2018-12-22T17:11:54.906Z,240.10
2018-12-22T17:14:25.327Z,316.40
2018-12-22T17:16:55.498Z,669.63
2018-12-22T17:19:25.573Z,547.50
2018-12-22T17:22:10.116Z,654.57
2018-12-22T17:24:48.569Z,622.70
2018-12-22T17:27:18.933Z,673.33
2018-12-22T17:29:49.146Z,680.13
2018-12-22T17:32:19.030Z,527.37
2018-12-22T17:34:49.193Z,368.57
2018-12-22T17:37:19.496Z,624.37
2018-12-22T17:39:53.474Z,836.43
2018-12-22T17:42:21.523Z,828.93
2018-12-22T17:44:51.453Z,963.00
2018-12-22T17:47:21.561Z,394.13
2018-12-22T17:49:51.663Z,657.50
2018-12-22T17:52:21.631Z,895.47
2018-12-22T17:54:51.694Z,437.57
2018-12-22T17:57:21.744Z,700.63
2018-12-22T17:59:51.612Z,656.73
2018-12-22T18:02:22.316Z,650.83
2018-12-22T18:04:52.338Z,599.07
2018-12-22T18:07:22.649Z,343.03
2018-12-22T18:09:52.669Z,561.60
2018-12-22T18:12:22.724Z,637.60
2018-12-22T18:14:52.809Z,501.27
2018-12-22T18:17:22.843Z,282.03
2018-12-22T18:19:53.041Z,491.83
2018-12-22T18:22:22.968Z,269.23
2018-12-22T18:24:52.874Z,273.67
2018-12-22T18:27:22.874Z,221.00
2018-12-22T18:29:52.889Z,449.10
2018-12-22T18:32:22.742Z,509.87
2018-12-22T18:34:52.742Z,441.40
2018-12-22T18:37:22.767Z,175.50
2018-12-22T18:39:52.959Z,157.27
2018-12-22T18:42:23.034Z,163.07
2018-12-22T18:44:53.023Z,132.00
2018-12-22T18:47:23.126Z,189.20
2018-12-22T18:49:53.211Z,109.50
2018-12-22T18:52:23.243Z,120.33
2018-12-22T18:54:53.260Z,160.43
2018-12-22T18:57:23.367Z,236.77
2018-12-22T18:59:54.237Z,316.47
2018-12-22T19:02:24.162Z,235.13
2018-12-22T19:04:54.142Z,254.17
2018-12-22T19:07:24.226Z,362.17
2018-12-22T19:09:55.169Z,483.27
2018-12-22T19:12:25.883Z,441.03
2018-12-22T19:14:56.780Z,449.53
2018-12-22T19:17:27.868Z,406.67
2018-12-22T19:19:59.047Z,453.47
2018-12-22T19:22:29.492Z,337.27
2018-12-22T19:25:00.575Z,271.67
2018-12-22T19:27:30.986Z,229.90
2018-12-22T19:30:01.705Z,283.00
2018-12-22T19:33:35.313Z,299.67
2018-12-22T19:36:06.705Z,310.57
2018-12-22T19:38:38.093Z,273.27
2018-12-22T19:41:08.989Z,425.00
2018-12-22T19:43:39.535Z,559.53
2018-12-22T19:46:09.857Z,417.40
2018-12-22T19:48:40.596Z,548.97
2018-12-22T19:51:11.145Z,663.33
2018-12-22T19:53:42.947Z,578.73
2018-12-22T19:56:14.367Z,641.33
2018-12-22T19:58:44.816Z,597.30
2018-12-22T20:01:15.301Z,454.90
2018-12-22T20:03:46.490Z,295.10
2018-12-22T20:06:17.191Z,430.77
2018-12-22T20:08:47.279Z,399.50
2018-12-22T20:11:17.648Z,524.80
2018-12-22T20:13:47.758Z,425.27
2018-12-22T20:16:17.714Z,293.03
2018-12-22T20:18:47.621Z,303.87
2018-12-22T20:21:17.480Z,355.10
2018-12-22T20:23:47.473Z,367.70
2018-12-22T20:26:17.444Z,326.27
2018-12-22T20:28:47.393Z,344.93
2018-12-22T20:31:17.587Z,301.47
2018-12-22T20:33:47.530Z,273.17
2018-12-22T20:36:18.318Z,449.13
2018-12-22T20:38:48.368Z,570.97
2018-12-22T20:41:18.331Z,435.27
2018-12-22T20:43:48.179Z,340.33
2018-12-22T20:46:18.139Z,300.50
2018-12-22T20:48:48.256Z,231.17
2018-12-22T20:51:18.328Z,208.17
2018-12-22T20:53:48.784Z,200.30
2018-12-22T20:56:18.839Z,353.80
2018-12-22T20:58:49.140Z,339.03
2018-12-22T21:01:19.325Z,236.77
2018-12-22T21:03:49.248Z,317.40
2018-12-22T21:06:24.225Z,420.67
2018-12-22T21:08:54.311Z,225.97
2018-12-22T21:11:25.248Z,247.70
2018-12-22T21:13:56.590Z,190.53
2018-12-22T21:16:27.416Z,386.17
2018-12-22T21:18:59.908Z,364.27
2018-12-22T21:21:32.103Z,161.23
2018-12-22T21:24:04.704Z,131.93
2018-12-22T21:26:36.983Z,108.80
2018-12-22T21:29:09.489Z,130.37
2018-12-22T21:31:42.292Z,203.90
2018-12-22T21:34:12.831Z,150.17
2018-12-22T21:36:43.897Z,139.60
2018-12-22T21:39:15.178Z,167.90
2018-12-22T21:41:47.104Z,212.07
2018-12-22T21:44:18.192Z,152.93
2018-12-22T21:46:49.163Z,138.23
2018-12-22T21:49:20.442Z,115.70
2018-12-22T21:51:51.767Z,125.07
2018-12-22T21:54:22.650Z,186.50
2018-12-22T21:56:53.614Z,298.60
2018-12-22T21:59:24.812Z,157.00
2018-12-22T22:01:56.157Z,253.63
2018-12-22T22:04:27.519Z,349.30
2018-12-22T22:06:58.537Z,316.93
2018-12-22T22:09:29.261Z,288.73
2018-12-22T22:12:00.299Z,399.77
2018-12-22T22:14:31.551Z,157.50
2018-12-22T22:17:03.156Z,314.10
2018-12-22T22:19:34.966Z,270.00
2018-12-22T22:22:06.297Z,218.43
2018-12-22T22:24:37.551Z,374.13
2018-12-22T22:27:09.266Z,173.43
2018-12-22T22:29:40.368Z,160.73
2018-12-22T22:32:11.798Z,144.27
2018-12-22T22:34:45.718Z,113.90
2018-12-22T22:37:16.245Z,103.13
2018-12-22T22:39:47.623Z,95.60
2018-12-22T22:42:18.538Z,86.87
2018-12-22T22:44:50.024Z,96.60
2018-12-22T22:47:21.228Z,146.80
2018-12-22T22:49:52.376Z,117.77
2018-12-22T22:52:23.309Z,125.37
2018-12-22T22:54:54.605Z,128.90
2018-12-22T22:57:25.447Z,207.37
2018-12-22T22:59:56.395Z,121.60
2018-12-22T23:02:27.492Z,109.30
2018-12-22T23:04:58.910Z,124.63
2018-12-22T23:07:30.525Z,108.67
2018-12-22T23:10:01.799Z,110.07
2018-12-22T23:12:32.019Z,120.80
2018-12-22T23:15:03.679Z,118.73
2018-12-22T23:17:34.520Z,92.37
2018-12-22T23:20:05.474Z,122.13
2018-12-22T23:22:36.291Z,113.17
2018-12-22T23:25:07.453Z,105.37
2018-12-22T23:27:38.476Z,102.30
2018-12-22T23:30:09.610Z,97.93
2018-12-22T23:32:40.436Z,110.93
2018-12-22T23:35:11.418Z,108.60
2018-12-22T23:37:43.092Z,113.17
2018-12-22T23:40:14.063Z,113.07
2018-12-22T23:42:45.350Z,118.27
2018-12-22T23:45:16.251Z,126.50
2018-12-22T23:47:47.288Z,123.77
2018-12-22T23:50:18.837Z,111.07
2018-12-22T23:52:51.977Z,109.83
2018-12-22T23:55:22.634Z,112.40
2018-12-22T23:57:54.804Z,123.30
